KLHQ

Fairfield County Airport

Lancaster, Ohio, USA
METAR KLHQ 210653Z AUTO 01004KT 10SM CLR 17/15 A3014 RMK AO2 SLP202 T01720150
Observed Flight Rules
May-21 @ 06:53 UTC (29 minutes ago) Visual Flight Rules
Wind Visibility Clouds
10° at 4 knots 10 miles
  • Clear skies
Temperatures Readings
Current 17°C / 63°F
Dewpoint 15°C / 59°F
Humidity 88%
Altimeter 30.14" Hg
Pressure 1020.2 hPa
Elevation 260
METAR KLHQ 210653Z AUTO 01004KT 10SM CLR 17/15 A3014 RMK AO2 SLP202 T01720150
Observed Flight Rules
May-21 @ 06:53 UTC
(29 minutes ago)
VFR
Wind Visibility
10° at 4 knots 10 miles
Clouds
  • Clear skies
Temperature Dewpoint
17°C / 63°F 15°C / 59°F
Humidity Altimeter Pressure
88% 30.14" Hg 1020.2 hPa